Time;durP1;ratioP1;P1;durP2;ratioP2;P2;SDS_P1;SDS_P2;PMS_P1;PMS_P2;Temp;Humidity;BMP_temperature;BMP_pressure;BME280_temperature;BME280_humidity;BME280_pressure;Samples;Min_cycle;Max_cycle;Signal;HPM_P1;HPM_P2
2021/04/24 00:00:44;;;;;;;10.85;5.97;;;;;;;;;;1495016;39;20384;-82
2021/04/24 00:01:45;;;;;;;9.35;5.72;;;;;;;;;;1494815;39;20415;-81
2021/04/24 00:02:46;;;;;;;10.70;5.25;;;;;;;;;;1490879;39;20412;-81
2021/04/24 00:03:47;;;;;;;11.75;5.63;;;;;;;;;;1492816;39;20387;-82
2021/04/24 00:04:49;;;;;;;13.77;5.47;;;;;;;;;;1495234;39;20407;-81
2021/04/24 00:05:50;;;;;;;14.13;6.47;;;;;;;;;;1490636;39;21133;-81
2021/04/24 00:06:51;;;;;;;9.90;5.25;;;;;;;;;;1495191;39;20414;-81
2021/04/24 00:08:11;;;;;;;12.50;5.80;;;;;;;;;;1494781;39;20823;-82
2021/04/24 00:09:12;;;;;;;12.27;6.32;;;;;;;;;;1492160;39;20393;-81
2021/04/24 00:10:15;;;;;;;11.60;5.90;;;;;;;;;;1494990;39;20970;-82
2021/04/24 00:11:17;;;;;;;11.23;5.55;;;;;;;;;;1495015;39;20410;-82
2021/04/24 00:12:18;;;;;;;11.65;5.53;;;;;;;;;;1493694;39;20446;-82
2021/04/24 00:13:19;;;;;;;9.90;6.03;;;;;;;;;;1494696;39;20426;-81
2021/04/24 00:14:20;;;;;;;9.65;5.03;;;;;;;;;;1490887;39;20959;-81
2021/04/24 00:15:24;;;;;;;11.15;5.97;;;;;;;;;;1490912;39;20405;-82
2021/04/24 00:16:25;;;;;;;11.90;5.97;;;;;;;;;;1495077;39;20759;-82
2021/04/24 00:17:26;;;;;;;10.80;5.15;;;;;;;;;;1495106;39;20411;-82
2021/04/24 00:18:28;;;;;;;12.55;5.13;;;;;;;;;;1495126;39;20407;-81
2021/04/24 00:19:29;;;;;;;12.43;5.45;;;;;;;;;;1486326;39;20446;-81
2021/04/24 00:20:30;;;;;;;11.13;5.57;;;;;;;;;;1491439;39;20413;-81
2021/04/24 00:21:31;;;;;;;9.48;5.40;;;;;;;;;;1499896;39;20402;-81
2021/04/24 00:22:33;;;;;;;11.07;5.32;;;;;;;;;;1494135;39;20411;-81
2021/04/24 00:23:34;;;;;;;11.63;5.43;;;;;;;;;;1487034;39;20403;-81
2021/04/24 00:24:35;;;;;;;9.63;4.93;;;;;;;;;;1491496;39;20888;-81
2021/04/24 00:25:36;;;;;;;11.38;5.30;;;;;;;;;;1500897;39;20405;-81
2021/04/24 00:26:37;;;;;;;9.68;5.68;;;;;;;;;;1496880;39;20412;-81
2021/04/24 00:27:38;;;;;;;10.07;5.90;;;;;;;;;;1497635;39;20436;-81
2021/04/24 00:28:41;;;;;;;10.05;5.80;;;;;;;;;;1503052;39;20410;-81
2021/04/24 00:29:42;;;;;;;12.25;5.15;;;;;;;;;;1503158;39;20401;-82
2021/04/24 00:30:43;;;;;;;9.90;5.43;;;;;;;;;;1494287;39;20918;-81
2021/04/24 00:31:44;;;;;;;10.45;5.53;;;;;;;;;;1486071;39;20420;-81
2021/04/24 00:32:45;;;;;;;11.43;5.70;;;;;;;;;;1490206;39;20708;-81
2021/04/24 00:33:46;;;;;;;14.40;5.63;;;;;;;;;;1495741;39;20391;-82
2021/04/24 00:34:48;;;;;;;13.95;6.22;;;;;;;;;;1495691;39;20680;-81
2021/04/24 00:35:49;;;;;;;13.18;5.32;;;;;;;;;;1490601;39;20460;-81
2021/04/24 00:36:49;;;;;;;12.77;5.93;;;;;;;;;;1490644;39;20732;-81
2021/04/24 00:37:50;;;;;;;12.15;5.45;;;;;;;;;;1485868;39;20418;-81
2021/04/24 00:38:51;;;;;;;12.73;5.78;;;;;;;;;;1491115;39;20409;-82
2021/04/24 00:39:53;;;;;;;11.73;5.47;;;;;;;;;;1499757;39;20398;-81
2021/04/24 00:40:55;;;;;;;11.27;5.37;;;;;;;;;;1491109;39;20547;-81
2021/04/24 00:41:56;;;;;;;11.60;5.97;;;;;;;;;;1491979;39;20495;-82
2021/04/24 00:42:58;;;;;;;13.48;5.63;;;;;;;;;;1495462;39;20408;-81
2021/04/24 00:43:59;;;;;;;8.65;5.85;;;;;;;;;;1495465;39;20407;-81
2021/04/24 00:45:00;;;;;;;13.88;5.63;;;;;;;;;;1495640;39;20395;-82
2021/04/24 00:46:11;;;;;;;9.15;5.72;;;;;;;;;;1495847;39;20846;-81
2021/04/24 00:47:12;;;;;;;13.82;5.82;;;;;;;;;;1495514;39;20379;-81
2021/04/24 00:48:14;;;;;;;11.77;5.53;;;;;;;;;;1495189;39;20396;-81
2021/04/24 00:49:15;;;;;;;11.23;5.82;;;;;;;;;;1500290;39;20386;-82
2021/04/24 00:50:18;;;;;;;14.00;5.95;;;;;;;;;;1498169;39;20375;-82
2021/04/24 00:51:19;;;;;;;13.05;6.40;;;;;;;;;;1501006;39;20418;-82
2021/04/24 00:52:20;;;;;;;15.15;6.55;;;;;;;;;;1504929;39;20390;-82
2021/04/24 00:53:21;;;;;;;10.77;6.00;;;;;;;;;;1495039;39;20417;-82
2021/04/24 00:54:22;;;;;;;12.82;5.40;;;;;;;;;;1487446;40;20399;-81
2021/04/24 00:55:25;;;;;;;12.70;6.55;;;;;;;;;;1484452;39;20409;-81
2021/04/24 00:56:26;;;;;;;15.80;5.95;;;;;;;;;;1492412;39;20414;-81
2021/04/24 00:57:28;;;;;;;10.65;6.40;;;;;;;;;;1500799;39;20410;-82
2021/04/24 00:58:29;;;;;;;11.57;5.60;;;;;;;;;;1505178;39;20438;-83
2021/04/24 00:59:30;;;;;;;12.57;6.65;;;;;;;;;;1503951;39;20405;-82
2021/04/24 01:00:31;;;;;;;12.70;6.18;;;;;;;;;;1496035;39;20447;-81
2021/04/24 01:01:32;;;;;;;12.90;6.20;;;;;;;;;;1491999;39;20457;-81
2021/04/24 01:02:34;;;;;;;12.77;6.15;;;;;;;;;;1495729;39;20396;-82
2021/04/24 01:03:34;;;;;;;14.07;6.57;;;;;;;;;;1500889;39;20420;-81
2021/04/24 01:04:36;;;;;;;13.30;6.43;;;;;;;;;;1496024;39;20384;-81
2021/04/24 01:05:39;;;;;;;13.25;6.32;;;;;;;;;;1487351;39;20406;-81
2021/04/24 01:06:40;;;;;;;11.15;6.43;;;;;;;;;;1491818;39;20405;-81
2021/04/24 01:07:41;;;;;;;13.73;6.03;;;;;;;;;;1495222;39;20679;-82
2021/04/24 01:08:43;;;;;;;13.00;6.60;;;;;;;;;;1487378;39;20410;-82
2021/04/24 01:09:45;;;;;;;12.77;6.10;;;;;;;;;;1487497;39;20397;-81
2021/04/24 01:10:46;;;;;;;14.45;6.05;;;;;;;;;;1496092;39;20816;-82
2021/04/24 01:11:47;;;;;;;15.77;7.20;;;;;;;;;;1500002;39;20389;-81
2021/04/24 01:12:48;;;;;;;14.68;7.05;;;;;;;;;;1495250;39;20455;-82
2021/04/24 01:13:49;;;;;;;13.60;6.55;;;;;;;;;;1487539;39;20414;-81
2021/04/24 01:14:50;;;;;;;9.52;6.05;;;;;;;;;;1486108;39;21851;-81
2021/04/24 01:15:51;;;;;;;11.88;6.13;;;;;;;;;;1495613;39;21037;-81
2021/04/24 01:16:53;;;;;;;11.60;6.30;;;;;;;;;;1500010;39;20402;-82
2021/04/24 01:17:54;;;;;;;13.40;6.63;;;;;;;;;;1500657;39;20394;-81
2021/04/24 01:18:55;;;;;;;13.73;6.78;;;;;;;;;;1500884;39;20498;-80
2021/04/24 01:19:56;;;;;;;10.70;6.38;;;;;;;;;;1500679;39;20401;-82
2021/04/24 01:20:58;;;;;;;14.18;6.40;;;;;;;;;;1502134;39;20390;-84
2021/04/24 01:22:06;;;;;;;11.10;6.50;;;;;;;;;;1498430;39;20403;-83
2021/04/24 01:23:08;;;;;;;13.63;6.57;;;;;;;;;;1493913;39;20449;-83
2021/04/24 01:24:10;;;;;;;13.20;6.73;;;;;;;;;;1485313;40;20421;-81
2021/04/24 01:25:13;;;;;;;15.07;6.90;;;;;;;;;;1491192;39;20418;-81
2021/04/24 01:26:14;;;;;;;11.23;6.72;;;;;;;;;;1496739;39;20531;-82
2021/04/24 01:27:15;;;;;;;13.27;5.88;;;;;;;;;;1495806;39;20411;-81
2021/04/24 01:28:16;;;;;;;12.18;6.88;;;;;;;;;;1503445;39;20405;-82
2021/04/24 01:29:17;;;;;;;11.25;6.05;;;;;;;;;;1505141;39;20409;-82
2021/04/24 01:30:22;;;;;;;13.98;6.38;;;;;;;;;;1500647;39;20404;-82
2021/04/24 01:31:23;;;;;;;13.18;6.53;;;;;;;;;;1499424;39;20452;-82
2021/04/24 01:32:25;;;;;;;10.90;5.80;;;;;;;;;;1500804;39;20479;-81
2021/04/24 01:33:26;;;;;;;11.27;6.35;;;;;;;;;;1500552;39;20394;-81
2021/04/24 01:34:28;;;;;;;9.45;6.40;;;;;;;;;;1501470;39;20412;-82
2021/04/24 01:35:31;;;;;;;11.82;6.40;;;;;;;;;;1501914;39;20447;-81
2021/04/24 01:36:33;;;;;;;16.17;7.43;;;;;;;;;;1495103;39;20449;-81
2021/04/24 01:37:35;;;;;;;14.52;6.50;;;;;;;;;;1495211;39;20415;-81
2021/04/24 01:38:36;;;;;;;14.75;7.50;;;;;;;;;;1499484;39;20449;-82
2021/04/24 01:39:41;;;;;;;15.02;6.80;;;;;;;;;;1498680;39;20442;-81
2021/04/24 01:40:42;;;;;;;12.55;7.32;;;;;;;;;;1499438;39;20394;-81
2021/04/24 01:41:43;;;;;;;16.52;7.25;;;;;;;;;;1498617;39;20401;-81
2021/04/24 01:42:44;;;;;;;16.35;6.95;;;;;;;;;;1499664;39;20789;-82
2021/04/24 01:43:50;;;;;;;14.23;6.75;;;;;;;;;;1500022;39;20537;-81
2021/04/24 01:44:51;;;;;;;13.25;7.53;;;;;;;;;;1500268;39;20433;-82
2021/04/24 01:45:52;;;;;;;13.60;7.25;;;;;;;;;;1495548;39;20941;-82
2021/04/24 01:46:53;;;;;;;17.27;7.35;;;;;;;;;;1491535;39;20494;-81
2021/04/24 01:47:56;;;;;;;14.63;7.38;;;;;;;;;;1494947;39;20473;-81
2021/04/24 01:48:57;;;;;;;15.55;7.93;;;;;;;;;;1500108;39;20477;-81
2021/04/24 01:49:58;;;;;;;14.90;7.78;;;;;;;;;;1495284;39;20796;-81
2021/04/24 01:50:59;;;;;;;12.02;7.05;;;;;;;;;;1495441;39;20423;-81
2021/04/24 01:52:00;;;;;;;12.13;7.45;;;;;;;;;;1494936;39;20399;-82
2021/04/24 01:53:02;;;;;;;13.60;8.00;;;;;;;;;;1496523;39;20400;-81
2021/04/24 01:54:03;;;;;;;14.30;7.55;;;;;;;;;;1501726;39;20409;-81
2021/04/24 01:55:24;;;;;;;14.05;8.00;;;;;;;;;;1502958;39;20424;-81
2021/04/24 01:56:25;;;;;;;15.55;7.70;;;;;;;;;;1492450;39;20442;-81
2021/04/24 01:57:26;;;;;;;15.25;7.78;;;;;;;;;;1489236;39;20405;-81
2021/04/24 01:58:27;;;;;;;14.00;7.45;;;;;;;;;;1492957;39;20401;-81
2021/04/24 01:59:32;;;;;;;15.65;7.18;;;;;;;;;;1496722;39;20505;-81
2021/04/24 02:00:35;;;;;;;10.73;7.28;;;;;;;;;;1496543;39;20414;-81
2021/04/24 02:01:36;;;;;;;15.38;8.23;;;;;;;;;;1494945;39;20542;-81
2021/04/24 02:02:37;;;;;;;12.80;7.28;;;;;;;;;;1495743;39;20418;-81
2021/04/24 02:03:39;;;;;;;12.65;7.25;;;;;;;;;;1495509;39;20468;-82
2021/04/24 02:04:40;;;;;;;14.77;7.60;;;;;;;;;;1489991;39;20405;-81
2021/04/24 02:05:42;;;;;;;13.13;7.65;;;;;;;;;;1495415;39;20388;-81
2021/04/24 02:06:43;;;;;;;17.92;8.25;;;;;;;;;;1490582;39;20445;-82
2021/04/24 02:07:57;;;;;;;14.02;7.30;;;;;;;;;;1482793;40;20404;-81
2021/04/24 02:08:58;;;;;;;13.93;8.07;;;;;;;;;;1489137;39;20544;-81
2021/04/24 02:09:59;;;;;;;13.90;7.35;;;;;;;;;;1492086;39;21082;-81
2021/04/24 02:11:01;;;;;;;15.90;7.70;;;;;;;;;;1491137;39;20667;-81
2021/04/24 02:12:07;;;;;;;13.25;8.05;;;;;;;;;;1494883;39;20835;-81
2021/04/24 02:13:16;;;;;;;14.82;7.80;;;;;;;;;;1499901;39;20497;-82
2021/04/24 02:14:17;;;;;;;14.90;8.73;;;;;;;;;;1499849;39;20441;-82
2021/04/24 02:15:18;;;;;;;14.38;8.00;;;;;;;;;;1490930;39;20409;-82
2021/04/24 02:16:19;;;;;;;15.23;7.70;;;;;;;;;;1491016;39;20457;-82
2021/04/24 02:17:24;;;;;;;15.38;7.72;;;;;;;;;;1494199;39;20408;-82
2021/04/24 02:18:25;;;;;;;14.50;8.20;;;;;;;;;;1495944;39;20452;-82
2021/04/24 02:19:27;;;;;;;14.13;7.70;;;;;;;;;;1495347;39;20407;-81
2021/04/24 02:20:28;;;;;;;17.90;8.32;;;;;;;;;;1495393;39;20800;-82
2021/04/24 02:21:29;;;;;;;14.60;8.40;;;;;;;;;;1499674;39;20479;-82
2021/04/24 02:22:30;;;;;;;13.73;7.97;;;;;;;;;;1499900;39;20771;-82
2021/04/24 02:23:31;;;;;;;13.57;7.70;;;;;;;;;;1495005;39;20403;-82
2021/04/24 02:24:40;;;;;;;13.77;8.20;;;;;;;;;;1495382;39;20859;-82
2021/04/24 02:25:42;;;;;;;14.88;8.38;;;;;;;;;;1495256;39;20459;-81
2021/04/24 02:26:43;;;;;;;14.30;7.57;;;;;;;;;;1495100;39;20426;-82
2021/04/24 02:27:44;;;;;;;13.43;7.95;;;;;;;;;;1495796;39;20388;-82
2021/04/24 02:28:45;;;;;;;16.85;7.95;;;;;;;;;;1490812;39;20657;-82
2021/04/24 02:29:46;;;;;;;15.88;8.18;;;;;;;;;;1491475;39;20412;-81
2021/04/24 02:30:47;;;;;;;13.63;7.65;;;;;;;;;;1495099;39;20392;-82
2021/04/24 02:31:48;;;;;;;14.75;8.23;;;;;;;;;;1495370;39;20419;-82
2021/04/24 02:32:50;;;;;;;16.58;8.57;;;;;;;;;;1495064;39;20757;-82
2021/04/24 02:33:51;;;;;;;15.80;7.85;;;;;;;;;;1495441;39;20403;-81
2021/04/24 02:34:52;;;;;;;14.43;8.65;;;;;;;;;;1499730;39;20978;-81
2021/04/24 02:35:57;;;;;;;17.63;8.85;;;;;;;;;;1499387;39;20394;-82
2021/04/24 02:36:58;;;;;;;16.75;8.18;;;;;;;;;;1499729;39;20448;-82
2021/04/24 02:37:59;;;;;;;13.80;7.68;;;;;;;;;;1495104;39;20524;-82
2021/04/24 02:39:00;;;;;;;14.18;7.75;;;;;;;;;;1495197;39;20399;-81
2021/04/24 02:40:03;;;;;;;13.40;8.80;;;;;;;;;;1499726;39;20402;-80
2021/04/24 02:41:04;;;;;;;16.63;8.23;;;;;;;;;;1496002;39;20493;-86
2021/04/24 02:42:07;;;;;;;16.83;9.13;;;;;;;;;;1492022;39;20384;-86
2021/04/24 02:43:08;;;;;;;16.20;9.05;;;;;;;;;;1491823;39;20456;-85
2021/04/24 02:44:09;;;;;;;18.08;8.75;;;;;;;;;;1495709;39;20446;-85
2021/04/24 02:45:11;;;;;;;16.33;9.52;;;;;;;;;;1502343;39;20401;-85
2021/04/24 02:46:13;;;;;;;16.75;9.07;;;;;;;;;;1498041;39;20383;-86
2021/04/24 02:47:14;;;;;;;18.42;8.43;;;;;;;;;;1497803;39;20404;-86
2021/04/24 02:48:15;;;;;;;13.20;7.63;;;;;;;;;;1501232;39;20449;-86
2021/04/24 02:49:16;;;;;;;15.73;8.90;;;;;;;;;;1495454;39;20392;-85
2021/04/24 02:50:18;;;;;;;16.25;9.43;;;;;;;;;;1490859;39;20408;-86
2021/04/24 02:51:22;;;;;;;13.88;9.07;;;;;;;;;;1495559;39;21014;-85
2021/04/24 02:52:23;;;;;;;16.50;8.98;;;;;;;;;;1487110;40;20443;-86
2021/04/24 02:53:24;;;;;;;14.60;8.88;;;;;;;;;;1487259;39;20420;-85
2021/04/24 02:54:25;;;;;;;17.88;9.23;;;;;;;;;;1495331;39;20408;-84
2021/04/24 02:55:26;;;;;;;13.95;9.05;;;;;;;;;;1494821;39;20664;-86
2021/04/24 02:56:27;;;;;;;15.50;9.82;;;;;;;;;;1494641;39;20411;-86
2021/04/24 02:57:28;;;;;;;17.85;9.13;;;;;;;;;;1496232;39;20395;-85
2021/04/24 02:58:29;;;;;;;19.50;9.73;;;;;;;;;;1491293;39;20417;-85
2021/04/24 02:59:30;;;;;;;18.40;9.68;;;;;;;;;;1486445;39;20407;-85
2021/04/24 03:00:32;;;;;;;17.10;9.27;;;;;;;;;;1487687;39;20496;-85
2021/04/24 03:01:33;;;;;;;17.67;9.38;;;;;;;;;;1491690;39;20440;-85
2021/04/24 03:02:34;;;;;;;15.35;9.77;;;;;;;;;;1491501;39;20393;-85
2021/04/24 03:03:35;;;;;;;20.17;9.88;;;;;;;;;;1491276;39;20663;-83
2021/04/24 03:04:39;;;;;;;18.15;9.32;;;;;;;;;;1495310;39;20395;-86
2021/04/24 03:05:41;;;;;;;13.75;8.95;;;;;;;;;;1492011;39;20445;-85
2021/04/24 03:06:42;;;;;;;18.35;9.25;;;;;;;;;;1492916;39;20412;-85
2021/04/24 03:07:44;;;;;;;15.70;9.98;;;;;;;;;;1496765;39;20392;-84
2021/04/24 03:08:45;;;;;;;16.67;10.30;;;;;;;;;;1498141;39;20400;-85
2021/04/24 03:09:46;;;;;;;16.98;9.50;;;;;;;;;;1498124;39;20512;-85
2021/04/24 03:10:47;;;;;;;17.00;9.80;;;;;;;;;;1492060;39;20400;-86
2021/04/24 03:11:49;;;;;;;24.25;11.32;;;;;;;;;;1491160;39;20398;-85
2021/04/24 03:12:51;;;;;;;15.85;9.43;;;;;;;;;;1491476;39;20413;-85
2021/04/24 03:13:52;;;;;;;17.02;9.73;;;;;;;;;;1495736;39;20410;-86
2021/04/24 03:14:53;;;;;;;18.52;9.95;;;;;;;;;;1496009;39;20418;-85
2021/04/24 03:15:54;;;;;;;21.40;10.90;;;;;;;;;;1491478;39;20401;-85
2021/04/24 03:16:55;;;;;;;19.80;10.33;;;;;;;;;;1491314;39;20516;-85
2021/04/24 03:17:57;;;;;;;16.98;9.90;;;;;;;;;;1486880;40;20410;-86
2021/04/24 03:18:58;;;;;;;17.20;9.80;;;;;;;;;;1478791;40;20963;-84
2021/04/24 03:19:59;;;;;;;17.98;10.25;;;;;;;;;;1484438;39;20391;-85
2021/04/24 03:21:00;;;;;;;19.67;10.25;;;;;;;;;;1486768;40;20446;-85
2021/04/24 03:22:01;;;;;;;21.65;10.85;;;;;;;;;;1487132;39;20417;-86
2021/04/24 03:23:04;;;;;;;20.25;10.27;;;;;;;;;;1493865;39;20407;-86
2021/04/24 03:24:05;;;;;;;18.77;10.55;;;;;;;;;;1487011;39;20696;-86
2021/04/24 03:25:07;;;;;;;26.17;10.57;;;;;;;;;;1492969;39;20878;-86
2021/04/24 03:26:08;;;;;;;20.70;11.18;;;;;;;;;;1495479;39;20420;-85
2021/04/24 03:27:09;;;;;;;20.27;10.30;;;;;;;;;;1496094;39;20413;-84
2021/04/24 03:28:10;;;;;;;19.25;10.68;;;;;;;;;;1500983;39;20411;-85
2021/04/24 03:29:11;;;;;;;18.90;10.82;;;;;;;;;;1499360;39;20395;-85
2021/04/24 03:30:13;;;;;;;22.55;11.45;;;;;;;;;;1495151;39;20417;-85
2021/04/24 03:31:14;;;;;;;22.20;10.57;;;;;;;;;;1497419;39;20408;-84
2021/04/24 03:32:15;;;;;;;18.10;10.32;;;;;;;;;;1497168;39;20472;-84
2021/04/24 03:33:17;;;;;;;21.85;11.45;;;;;;;;;;1493365;39;20413;-85
2021/04/24 03:34:18;;;;;;;21.08;10.75;;;;;;;;;;1497607;39;20405;-85
2021/04/24 03:35:19;;;;;;;19.38;11.68;;;;;;;;;;1500393;39;20411;-86
2021/04/24 03:36:20;;;;;;;21.17;11.45;;;;;;;;;;1494845;39;20416;-86
2021/04/24 03:37:21;;;;;;;23.23;11.25;;;;;;;;;;1499140;39;20415;-86
2021/04/24 03:38:23;;;;;;;21.98;11.00;;;;;;;;;;1498666;39;20400;-86
2021/04/24 03:39:26;;;;;;;24.23;11.80;;;;;;;;;;1488161;39;20394;-87
2021/04/24 03:40:27;;;;;;;21.85;11.32;;;;;;;;;;1483505;39;20413;-86
2021/04/24 03:41:29;;;;;;;23.60;11.32;;;;;;;;;;1487477;39;20414;-85
2021/04/24 03:42:30;;;;;;;21.67;11.77;;;;;;;;;;1495428;39;20417;-87
2021/04/24 03:43:32;;;;;;;23.25;10.93;;;;;;;;;;1500282;39;20386;-86
2021/04/24 03:44:33;;;;;;;20.70;10.93;;;;;;;;;;1499665;39;20407;-86
2021/04/24 03:45:36;;;;;;;21.05;11.55;;;;;;;;;;1491389;39;20401;-85
2021/04/24 03:46:37;;;;;;;22.17;12.07;;;;;;;;;;1487090;39;20414;-87
2021/04/24 03:47:38;;;;;;;18.13;11.75;;;;;;;;;;1482794;40;20424;-86
2021/04/24 03:48:39;;;;;;;21.25;11.68;;;;;;;;;;1483158;39;20408;-86
2021/04/24 03:49:40;;;;;;;24.40;11.65;;;;;;;;;;1483208;40;20412;-87
2021/04/24 03:50:41;;;;;;;19.40;10.93;;;;;;;;;;1487299;39;20400;-87
2021/04/24 03:51:42;;;;;;;26.98;11.93;;;;;;;;;;1491865;39;20790;-87
2021/04/24 03:52:44;;;;;;;23.20;12.23;;;;;;;;;;1489059;39;20421;-86
2021/04/24 03:53:45;;;;;;;25.73;11.82;;;;;;;;;;1492243;39;20413;-86
2021/04/24 03:54:47;;;;;;;24.60;12.02;;;;;;;;;;1487866;39;20465;-86
2021/04/24 03:55:48;;;;;;;20.77;11.35;;;;;;;;;;1487829;39;20784;-86
2021/04/24 03:56:49;;;;;;;26.45;13.38;;;;;;;;;;1491892;39;20412;-86
2021/04/24 03:57:50;;;;;;;23.30;11.88;;;;;;;;;;1487389;39;20758;-86
2021/04/24 03:58:51;;;;;;;22.33;11.15;;;;;;;;;;1492600;39;20420;-85
2021/04/24 03:59:55;;;;;;;24.17;12.55;;;;;;;;;;1492575;39;20901;-85
2021/04/24 04:00:58;;;;;;;23.73;10.65;;;;;;;;;;1489029;39;20456;-86
2021/04/24 04:01:59;;;;;;;22.20;12.15;;;;;;;;;;1493981;39;20404;-86
2021/04/24 04:03:01;;;;;;;23.98;11.70;;;;;;;;;;1503103;39;20495;-86
2021/04/24 04:04:02;;;;;;;23.40;11.98;;;;;;;;;;1500030;39;20395;-85
2021/04/24 04:05:03;;;;;;;22.30;12.23;;;;;;;;;;1491152;39;20414;-86
2021/04/24 04:06:04;;;;;;;24.70;12.13;;;;;;;;;;1491253;39;20390;-85
2021/04/24 04:07:05;;;;;;;22.23;11.52;;;;;;;;;;1499612;39;20395;-86
2021/04/24 04:08:07;;;;;;;20.85;12.13;;;;;;;;;;1499793;39;20407;-85
2021/04/24 04:09:10;;;;;;;23.50;11.50;;;;;;;;;;1500735;39;20422;-84
2021/04/24 04:10:15;;;;;;;21.38;12.35;;;;;;;;;;1499447;39;20422;-82
2021/04/24 04:11:16;;;;;;;22.00;11.63;;;;;;;;;;1500521;39;20407;-85
2021/04/24 04:12:17;;;;;;;21.85;12.00;;;;;;;;;;1504245;39;20402;-87
2021/04/24 04:13:18;;;;;;;20.67;11.55;;;;;;;;;;1496876;39;20413;-86
2021/04/24 04:14:19;;;;;;;25.52;12.27;;;;;;;;;;1497041;39;20416;-85
2021/04/24 04:15:21;;;;;;;20.05;11.25;;;;;;;;;;1501052;39;20415;-85
2021/04/24 04:16:23;;;;;;;22.77;12.57;;;;;;;;;;1493018;39;20390;-86
2021/04/24 04:17:24;;;;;;;19.52;11.45;;;;;;;;;;1493047;39;20407;-86
2021/04/24 04:18:25;;;;;;;22.48;12.18;;;;;;;;;;1493270;39;20411;-86
2021/04/24 04:19:26;;;;;;;23.73;11.65;;;;;;;;;;1488808;40;20401;-85
2021/04/24 04:20:31;;;;;;;22.98;11.43;;;;;;;;;;1485220;40;20406;-85
2021/04/24 04:21:32;;;;;;;23.55;11.82;;;;;;;;;;1489121;40;20443;-85
2021/04/24 04:22:33;;;;;;;19.95;11.43;;;;;;;;;;1492157;39;20395;-85
2021/04/24 04:23:34;;;;;;;24.47;12.17;;;;;;;;;;1493318;39;20506;-87
2021/04/24 04:24:35;;;;;;;24.38;12.65;;;;;;;;;;1493359;39;20425;-87
2021/04/24 04:25:37;;;;;;;21.88;12.00;;;;;;;;;;1497498;39;20404;-87
2021/04/24 04:26:38;;;;;;;20.90;12.65;;;;;;;;;;1496137;39;20438;-87
2021/04/24 04:27:39;;;;;;;23.10;12.32;;;;;;;;;;1491213;39;20427;-86
2021/04/24 04:28:40;;;;;;;20.05;12.20;;;;;;;;;;1489823;39;20792;-86
2021/04/24 04:29:41;;;;;;;23.13;11.70;;;;;;;;;;1487333;39;20468;-87
2021/04/24 04:30:42;;;;;;;21.85;12.27;;;;;;;;;;1487655;39;20403;-87
2021/04/24 04:31:43;;;;;;;25.27;12.52;;;;;;;;;;1487553;39;20427;-87
2021/04/24 04:32:44;;;;;;;20.50;11.32;;;;;;;;;;1483148;40;20689;-87
2021/04/24 04:33:46;;;;;;;20.48;11.77;;;;;;;;;;1489765;39;20481;-86
2021/04/24 04:34:47;;;;;;;23.35;12.20;;;;;;;;;;1491020;39;20691;-87
2021/04/24 04:35:49;;;;;;;24.50;12.43;;;;;;;;;;1487202;39;20407;-87
2021/04/24 04:36:51;;;;;;;23.67;12.35;;;;;;;;;;1495872;39;20451;-87
2021/04/24 04:37:53;;;;;;;23.60;12.23;;;;;;;;;;1495339;39;20434;-87
2021/04/24 04:38:54;;;;;;;23.23;12.43;;;;;;;;;;1490920;39;20401;-86
2021/04/24 04:40:00;;;;;;;21.38;12.20;;;;;;;;;;1491645;39;20416;-88
2021/04/24 04:41:01;;;;;;;20.98;11.43;;;;;;;;;;1495575;39;20396;-87
2021/04/24 04:42:02;;;;;;;21.50;12.05;;;;;;;;;;1496336;39;20414;-86
2021/04/24 04:43:05;;;;;;;22.77;13.10;;;;;;;;;;1490702;39;20409;-86
2021/04/24 04:44:06;;;;;;;23.73;12.30;;;;;;;;;;1491102;39;20394;-87
2021/04/24 04:45:09;;;;;;;29.05;12.75;;;;;;;;;;1487097;39;20403;-87
2021/04/24 04:46:10;;;;;;;20.77;12.43;;;;;;;;;;1491408;39;20416;-87
2021/04/24 04:47:12;;;;;;;19.47;12.37;;;;;;;;;;1488422;39;20408;-87
2021/04/24 04:48:13;;;;;;;26.05;13.38;;;;;;;;;;1486568;39;20395;-86
2021/04/24 04:49:14;;;;;;;22.48;12.15;;;;;;;;;;1491212;39;20413;-86
2021/04/24 04:50:19;;;;;;;22.98;12.00;;;;;;;;;;1487347;39;20418;-87
2021/04/24 04:51:21;;;;;;;25.40;12.20;;;;;;;;;;1491641;39;20393;-87
2021/04/24 04:52:22;;;;;;;20.23;12.03;;;;;;;;;;1495338;39;20402;-86
2021/04/24 04:53:28;;;;;;;23.03;12.10;;;;;;;;;;1486955;40;20449;-86
2021/04/24 04:54:49;;;;;;;22.95;11.65;;;;;;;;;;1486840;39;20433;-86
2021/04/24 04:55:50;;;;;;;23.85;12.60;;;;;;;;;;1492842;39;20407;-86
2021/04/24 04:56:52;;;;;;;22.88;13.27;;;;;;;;;;1493243;39;20409;-86
2021/04/24 04:57:53;;;;;;;22.23;12.35;;;;;;;;;;1493086;39;20725;-86
2021/04/24 04:58:54;;;;;;;23.38;11.93;;;;;;;;;;1492386;39;20638;-86
2021/04/24 04:59:55;;;;;;;18.47;10.80;;;;;;;;;;1493985;39;20524;-86
2021/04/24 05:00:56;;;;;;;26.45;12.68;;;;;;;;;;1495747;39;20400;-86
2021/04/24 05:01:58;;;;;;;22.48;11.25;;;;;;;;;;1491365;39;20389;-86
2021/04/24 05:03:06;;;;;;;23.23;11.63;;;;;;;;;;1491091;39;20787;-86
2021/04/24 05:04:07;;;;;;;20.55;11.48;;;;;;;;;;1495441;39;20395;-86
2021/04/24 05:05:09;;;;;;;22.48;12.45;;;;;;;;;;1490709;39;20398;-86
2021/04/24 05:06:10;;;;;;;24.13;13.23;;;;;;;;;;1491221;39;20421;-86
2021/04/24 05:07:11;;;;;;;26.20;12.73;;;;;;;;;;1495285;39;20388;-86
2021/04/24 05:08:12;;;;;;;20.45;12.30;;;;;;;;;;1495024;39;20529;-86
2021/04/24 05:09:13;;;;;;;18.35;11.45;;;;;;;;;;1491103;39;20401;-85
2021/04/24 05:10:16;;;;;;;19.05;11.30;;;;;;;;;;1486888;39;20399;-86
2021/04/24 05:11:17;;;;;;;21.23;12.18;;;;;;;;;;1494941;39;20392;-86
2021/04/24 05:12:18;;;;;;;21.05;12.32;;;;;;;;;;1493812;39;20399;-86
2021/04/24 05:13:19;;;;;;;20.05;11.50;;;;;;;;;;1491097;39;20424;-86
2021/04/24 05:14:20;;;;;;;21.95;12.20;;;;;;;;;;1495137;39;20419;-86
2021/04/24 05:15:22;;;;;;;23.38;11.88;;;;;;;;;;1495533;39;20660;-86
2021/04/24 05:16:23;;;;;;;23.17;13.05;;;;;;;;;;1494998;39;20830;-87
2021/04/24 05:17:24;;;;;;;20.10;11.20;;;;;;;;;;1487801;39;20403;-86
2021/04/24 05:18:26;;;;;;;19.40;11.40;;;;;;;;;;1490917;39;20413;-85
2021/04/24 05:19:27;;;;;;;17.33;10.93;;;;;;;;;;1495535;39;20395;-86
2021/04/24 05:20:28;;;;;;;20.58;11.57;;;;;;;;;;1491551;39;20386;-85
2021/04/24 05:21:29;;;;;;;21.60;11.65;;;;;;;;;;1491673;39;20416;-86
2021/04/24 05:22:30;;;;;;;24.58;11.48;;;;;;;;;;1491617;39;20413;-86
2021/04/24 05:23:31;;;;;;;23.20;11.50;;;;;;;;;;1487006;39;20413;-85
2021/04/24 05:24:32;;;;;;;21.67;11.30;;;;;;;;;;1490676;39;20413;-85
2021/04/24 05:25:33;;;;;;;20.38;10.57;;;;;;;;;;1491640;39;20385;-87
2021/04/24 05:26:37;;;;;;;17.17;10.05;;;;;;;;;;1491508;39;20420;-86
2021/04/24 05:27:42;;;;;;;20.92;11.65;;;;;;;;;;1495401;39;20396;-85
2021/04/24 05:28:43;;;;;;;23.33;12.27;;;;;;;;;;1496026;39;20395;-86
2021/04/24 05:29:44;;;;;;;20.90;11.02;;;;;;;;;;1488526;39;20949;-85
2021/04/24 05:30:45;;;;;;;20.42;10.82;;;;;;;;;;1494827;39;20409;-86
2021/04/24 05:31:46;;;;;;;19.33;10.95;;;;;;;;;;1499327;39;20951;-87
2021/04/24 05:32:48;;;;;;;19.60;11.03;;;;;;;;;;1498477;39;20443;-85
2021/04/24 05:33:49;;;;;;;23.00;11.82;;;;;;;;;;1499390;39;20406;-87
2021/04/24 05:34:51;;;;;;;17.83;9.77;;;;;;;;;;1496407;39;20461;-87
2021/04/24 05:35:53;;;;;;;18.73;11.38;;;;;;;;;;1495915;39;20500;-86
2021/04/24 05:36:55;;;;;;;21.05;11.07;;;;;;;;;;1491144;39;20411;-88
2021/04/24 05:37:56;;;;;;;17.90;11.65;;;;;;;;;;1495944;39;20705;-85
2021/04/24 05:38:57;;;;;;;21.83;11.40;;;;;;;;;;1496581;39;20461;-86
2021/04/24 05:39:59;;;;;;;23.92;11.50;;;;;;;;;;1491679;39;20468;-86
2021/04/24 05:41:05;;;;;;;20.52;10.90;;;;;;;;;;1491940;39;20467;-87
2021/04/24 05:42:06;;;;;;;17.35;11.10;;;;;;;;;;1492489;39;20393;-87
2021/04/24 05:43:13;;;;;;;20.10;11.52;;;;;;;;;;1491263;39;20438;-85
2021/04/24 05:44:14;;;;;;;19.45;10.68;;;;;;;;;;1491646;39;20449;-86
2021/04/24 05:45:18;;;;;;;17.90;10.88;;;;;;;;;;1487054;40;20410;-87
2021/04/24 05:46:23;;;;;;;20.13;10.75;;;;;;;;;;1486662;39;20518;-86
2021/04/24 05:47:25;;;;;;;19.25;11.50;;;;;;;;;;1495665;39;20439;-86
2021/04/24 05:48:26;;;;;;;22.95;10.98;;;;;;;;;;1495976;39;20410;-85
2021/04/24 05:49:31;;;;;;;22.30;11.33;;;;;;;;;;1494475;39;20731;-86
2021/04/24 05:50:52;;;;;;;17.67;10.70;;;;;;;;;;1491780;39;20730;-86
2021/04/24 05:51:53;;;;;;;17.80;11.13;;;;;;;;;;1493168;39;20505;-87
2021/04/24 05:52:55;;;;;;;19.30;10.50;;;;;;;;;;1491809;39;20401;-87
2021/04/24 05:53:57;;;;;;;18.15;10.70;;;;;;;;;;1496102;39;20450;-87
2021/04/24 05:54:58;;;;;;;16.60;10.13;;;;;;;;;;1496369;39;20411;-86
2021/04/24 05:55:59;;;;;;;23.08;11.40;;;;;;;;;;1495688;39;20415;-88
2021/04/24 05:57:00;;;;;;;19.70;11.27;;;;;;;;;;1495983;39;20908;-87
2021/04/24 05:58:02;;;;;;;16.92;10.57;;;;;;;;;;1495962;39;20427;-87
2021/04/24 05:59:06;;;;;;;16.20;10.18;;;;;;;;;;1496216;39;20447;-87
2021/04/24 06:00:13;;;;;;;16.92;9.90;;;;;;;;;;1495734;39;20879;-87
2021/04/24 06:01:14;;;;;;;16.38;10.18;;;;;;;;;;1494997;39;20395;-86
2021/04/24 06:02:20;;;;;;;17.63;10.25;;;;;;;;;;1491367;39;20826;-88
2021/04/24 06:03:24;;;;;;;20.02;11.35;;;;;;;;;;1500165;39;20463;-86